Archival Weather

Republic

Farmingdale, New York (KFRG)

Report from: Monday, February 19, 2024 11:53 AM EST
Current time: Friday, June 14, 2024 7:57 AM EDT

Current weather – Weather history – Daily summaries
Weather forecast

Temperature3.3°C (37.9°F)
Wind chill-0.6°C (30.9°F)
Dew point-9.4°C (15.1°F)
Winds 9 kts (4.6 m/s, 10.4 mph) North-Northwest (340°)
Wind gusts 17 kts (8.7 m/s, 19.6 mph)
Visibility10 mi. (16.1 km)
Clouds Sky clear
Altimeter30.17 in.Hg (1022 mB)
Relative humidity39 %
Density altitude-1,651 ft. (-503 m)
Sea-level pressure102.2 kPa (1022 mB, 30.17 in.Hg)
Remarks Automated weather observing station without precipitation discriminator
Flight conditions Visual Meteorological Conditions
Raw dataKFRG 191653Z 34009G17KT 10SM CLR 03/M09 A3017 RMK AO1 SLP216 T00331094
An error has occurred. This application may no longer respond until reloaded. Reload 🗙